Main page
METAR-TAF:

METAR-TAF

Airports :

Tahoua Airport

Tahoua, Niger

latitude: 14-54N, longitude: 005-15E, elevation: 386 m

Current weather observation

The report was made 53 minutes ago, at 16:00 UTC
Wind 4 kt from the South
Temperature 35°C
Humidity 37%
Pressure 1011 hPa
Visibility 10 km or more
Few clouds at a height of 3000 ft

METAR: DRRT 221600Z 19004KT 9999 FEW030 CB 35/18 Q1011

Time: 17:53 (16:53 UTC)


TAF: missing

Weather observations and forecasts of more than 4000 airports (METAR and TAF reports).

The available stations are represented by yellow and red dots on the map.

Hover mouse over dot to see the name of the station.

Then click to see weather observations and forecasts.

To change the map : click on the green buttons with a black cross to zoom in, on the green button with a dash to zoom out, or on the green arrows for adjacent maps.


METAR-TAF: